Time;durP1;ratioP1;P1;durP2;ratioP2;P2;SDS_P1;SDS_P2;PMS_P1;PMS_P2;Temp;Humidity;BMP_temperature;BMP_pressure;BME280_temperature;BME280_humidity;BME280_pressure;Samples;Min_cycle;Max_cycle;Signal;HPM_P1;HPM_P2
2023/10/26 00:01:05;;;;;;;0.00;0.00;;;;;;;6.92;100.00;99711.34;5112549;28;20023;-39
2023/10/26 00:03:31;;;;;;;0.00;0.00;;;;;;;6.92;100.00;99706.00;5112167;28;20081;-38
2023/10/26 00:05:56;;;;;;;0.00;0.00;;;;;;;6.92;100.00;99708.69;5112093;28;20470;-39
2023/10/26 00:08:21;;;;;;;0.00;0.00;;;;;;;6.89;100.00;99701.84;5111828;28;20039;-39
2023/10/26 00:10:47;;;;;;;0.00;0.00;;;;;;;6.86;100.00;99704.91;5111989;28;20023;-37
2023/10/26 00:13:12;;;;;;;0.00;0.00;;;;;;;6.82;100.00;99707.13;5112115;28;20034;-37
2023/10/26 00:15:38;;;;;;;0.00;0.00;;;;;;;6.82;100.00;99714.34;5111801;28;20039;-38
2023/10/26 00:18:03;;;;;;;0.00;0.00;;;;;;;6.79;100.00;99715.53;5112225;28;20107;-38
2023/10/26 00:20:29;;;;;;;0.00;0.00;;;;;;;6.75;100.00;99722.25;5112891;27;20473;-38
2023/10/26 00:22:54;;;;;;;0.00;0.00;;;;;;;6.78;100.00;99719.19;5111725;28;20102;-38
2023/10/26 00:25:19;;;;;;;0.00;0.00;;;;;;;6.79;100.00;99720.88;5111761;28;20031;-38
2023/10/26 00:27:45;;;;;;;0.00;0.00;;;;;;;6.76;100.00;99718.56;5112637;28;20068;-38
2023/10/26 00:30:11;;;;;;;0.00;0.00;;;;;;;6.74;100.00;99712.59;5112414;28;20056;-38
2023/10/26 00:32:37;;;;;;;0.00;0.00;;;;;;;6.73;100.00;99715.44;5115709;28;20111;-39
2023/10/26 00:35:03;;;;;;;0.00;0.00;;;;;;;6.70;100.00;99711.28;5101163;28;20201;-39
2023/10/26 00:37:29;;;;;;;0.00;0.00;;;;;;;6.70;100.00;99716.63;5121878;28;20043;-39
2023/10/26 00:39:54;;;;;;;0.00;0.00;;;;;;;6.69;100.00;99714.97;5114317;28;20378;-38
2023/10/26 00:42:20;;;;;;;0.00;0.00;;;;;;;6.67;100.00;99711.66;5111920;28;20032;-39
2023/10/26 00:44:46;;;;;;;0.00;0.00;;;;;;;6.65;100.00;99707.50;5112554;28;20028;-39
2023/10/26 00:47:12;;;;;;;0.00;0.00;;;;;;;6.65;100.00;99711.00;5093836;28;20080;-37
2023/10/26 00:49:40;;;;;;;0.00;0.00;;;;;;;6.62;100.00;99713.22;5092984;28;20039;-39
2023/10/26 00:52:06;;;;;;;0.00;0.00;;;;;;;6.59;100.00;99717.09;5111402;28;20442;-38
2023/10/26 00:54:32;;;;;;;0.00;0.00;;;;;;;6.56;100.00;99714.78;5111411;28;20114;-38
2023/10/26 00:56:57;;;;;;;0.00;0.00;;;;;;;6.53;100.00;99721.34;5093661;28;20431;-39
2023/10/26 00:59:24;;;;;;;0.00;0.00;;;;;;;6.52;100.00;99716.97;5092221;28;20069;-39
2023/10/26 01:01:50;;;;;;;0.00;0.00;;;;;;;6.51;100.00;99712.66;5111858;28;20446;-39
2023/10/26 01:04:16;;;;;;;0.00;0.00;;;;;;;6.50;100.00;99702.13;5092808;28;20051;-40
2023/10/26 01:06:42;;;;;;;0.00;0.00;;;;;;;6.50;100.00;99708.34;5110936;28;20038;-38
2023/10/26 01:09:11;;;;;;;0.00;0.00;;;;;;;6.49;100.00;99713.84;5110844;28;20038;-41
2023/10/26 01:11:39;;;;;;;0.00;0.00;;;;;;;6.48;100.00;99721.03;5111262;28;20028;-37
2023/10/26 01:14:05;;;;;;;0.00;0.00;;;;;;;6.49;100.00;99720.03;5110989;28;20020;-41
2023/10/26 01:16:32;;;;;;;0.00;0.00;;;;;;;6.46;100.00;99709.69;5092633;28;20048;-36
2023/10/26 01:19:08;;;;;;;0.00;0.00;;;;;;;6.46;100.00;99699.00;5110397;28;20080;-38
2023/10/26 01:21:49;;;;;;;0.00;0.00;;;;;;;6.48;100.00;99699.66;5114185;28;20028;-39
2023/10/26 01:24:14;;;;;;;0.00;0.00;;;;;;;6.45;100.00;99696.50;5114983;28;20034;-39
2023/10/26 01:26:40;;;;;;;0.00;0.00;;;;;;;6.43;100.00;99703.91;5114125;28;20031;-39
2023/10/26 01:29:06;;;;;;;0.00;0.00;;;;;;;6.38;100.00;99705.28;5114485;28;20028;-38
2023/10/26 01:31:31;;;;;;;0.00;0.00;;;;;;;6.35;100.00;99702.16;5115258;28;20038;-39
2023/10/26 01:33:56;;;;;;;0.00;0.00;;;;;;;6.32;100.00;99707.84;5116393;28;20401;-38
2023/10/26 01:36:22;;;;;;;0.00;0.00;;;;;;;6.30;100.00;99705.34;5115338;28;20036;-39
2023/10/26 01:38:47;;;;;;;0.00;0.00;;;;;;;6.29;100.00;99698.38;5116885;28;20020;-38
2023/10/26 01:41:12;;;;;;;0.00;0.00;;;;;;;6.31;100.00;99695.50;5115856;28;20023;-38
2023/10/26 01:43:38;;;;;;;0.00;0.00;;;;;;;6.31;100.00;99693.63;5121567;28;20077;-39
2023/10/26 01:46:03;;;;;;;0.00;0.00;;;;;;;6.34;100.00;99695.94;5125524;28;20027;-40
2023/10/26 01:48:28;;;;;;;0.00;0.00;;;;;;;6.36;100.00;99693.94;5125669;28;20024;-39
2023/10/26 01:50:54;;;;;;;0.00;0.00;;;;;;;6.34;100.00;99695.13;5125535;28;20079;-39
2023/10/26 01:53:23;;;;;;;0.00;0.00;;;;;;;6.31;100.00;99690.97;5125227;28;20027;-39
2023/10/26 01:55:48;;;;;;;0.00;0.00;;;;;;;6.27;100.00;99704.91;5124849;28;20393;-39
2023/10/26 01:58:14;;;;;;;0.00;0.00;;;;;;;6.26;100.00;99705.91;5125299;28;20056;-39
2023/10/26 02:00:39;;;;;;;0.00;0.00;;;;;;;6.22;100.00;99709.97;5125073;28;20546;-40
2023/10/26 02:03:04;;;;;;;0.00;0.00;;;;;;;6.20;100.00;99720.00;5123369;28;20458;-38
2023/10/26 02:05:30;;;;;;;0.00;0.00;;;;;;;6.22;100.00;99713.44;5114977;28;20493;-39
2023/10/26 02:07:55;;;;;;;0.00;0.00;;;;;;;6.23;100.00;99708.94;5113777;28;20381;-39
2023/10/26 02:10:21;;;;;;;0.00;0.00;;;;;;;6.27;100.00;99707.56;5095396;28;20028;-38
2023/10/26 02:12:46;;;;;;;0.00;0.00;;;;;;;6.30;100.00;99700.00;5113656;28;20382;-38
2023/10/26 02:15:12;;;;;;;0.00;0.00;;;;;;;6.33;100.00;99699.63;5114359;28;20027;-39
2023/10/26 02:17:37;;;;;;;0.10;0.10;;;;;;;6.36;100.00;99688.59;5114796;28;20028;-39
2023/10/26 02:20:03;;;;;;;0.20;0.20;;;;;;;6.40;100.00;99688.22;5116200;28;20066;-37
2023/10/26 02:22:28;;;;;;;0.05;0.05;;;;;;;6.37;100.00;99679.56;5118985;28;20050;-37
2023/10/26 02:24:54;;;;;;;0.20;0.20;;;;;;;6.39;100.00;99684.72;5120497;28;20398;-38
2023/10/26 02:27:19;;;;;;;0.20;0.20;;;;;;;6.39;100.00;99692.72;5121450;28;20031;-40
2023/10/26 02:29:44;;;;;;;0.00;0.00;;;;;;;6.36;100.00;99691.25;5121404;28;20513;-40
2023/10/26 02:32:10;;;;;;;0.10;0.10;;;;;;;6.30;100.00;99697.34;5119664;28;20055;-38
2023/10/26 02:34:35;;;;;;;0.00;0.00;;;;;;;6.30;100.00;99689.31;5120349;28;20016;-39
2023/10/26 02:37:01;;;;;;;0.00;0.00;;;;;;;6.31;100.00;99687.47;5120701;28;20460;-39
2023/10/26 02:39:27;;;;;;;0.00;0.00;;;;;;;6.33;100.00;99690.81;5123324;28;20031;-40
2023/10/26 02:41:52;;;;;;;0.00;0.00;;;;;;;6.33;100.00;99682.78;5120585;28;20092;-39
2023/10/26 02:44:18;;;;;;;0.00;0.00;;;;;;;6.34;100.00;99679.91;5120872;28;20485;-38
2023/10/26 02:46:43;;;;;;;0.00;0.00;;;;;;;6.31;100.00;99685.63;5118048;28;20019;-38
2023/10/26 02:49:08;;;;;;;0.00;0.00;;;;;;;6.31;100.00;99680.28;5118002;28;20115;-38
2023/10/26 02:51:34;;;;;;;0.00;0.00;;;;;;;6.30;100.00;99677.81;5118306;28;20069;-38
2023/10/26 02:53:59;;;;;;;0.00;0.00;;;;;;;6.31;100.00;99676.78;5117242;28;20035;-38
2023/10/26 02:56:24;;;;;;;0.00;0.00;;;;;;;6.30;100.00;99677.81;5117582;28;20019;-39
2023/10/26 02:58:50;;;;;;;0.00;0.00;;;;;;;6.31;100.00;99669.59;5116629;28;20031;-40
2023/10/26 03:01:15;;;;;;;0.00;0.00;;;;;;;6.33;100.00;99674.78;5115575;28;20527;-40
2023/10/26 03:03:40;;;;;;;0.00;0.00;;;;;;;6.32;100.00;99681.13;5114409;28;20074;-39
2023/10/26 03:06:05;;;;;;;0.00;0.00;;;;;;;6.32;100.00;99681.97;5113536;28;20016;-37
2023/10/26 03:08:31;;;;;;;0.05;0.00;;;;;;;6.30;100.00;99683.16;5113269;28;20087;-38
2023/10/26 03:10:56;;;;;;;0.00;0.00;;;;;;;6.26;100.00;99684.53;5113213;28;20024;-40
2023/10/26 03:13:21;;;;;;;0.00;0.00;;;;;;;6.24;100.00;99678.53;5113423;28;20035;-38
2023/10/26 03:15:47;;;;;;;0.00;0.00;;;;;;;6.22;100.00;99676.03;5113496;28;20032;-37
2023/10/26 03:18:12;;;;;;;0.00;0.00;;;;;;;6.21;100.00;99674.38;5114309;28;20028;-38
2023/10/26 03:20:38;;;;;;;0.00;0.00;;;;;;;6.19;100.00;99676.41;5114616;28;20031;-38
2023/10/26 03:23:03;;;;;;;0.00;0.00;;;;;;;6.15;100.00;99669.75;5114471;28;20035;-39
2023/10/26 03:25:28;;;;;;;0.00;0.00;;;;;;;6.17;100.00;99678.44;5114182;28;20083;-38
2023/10/26 03:27:54;;;;;;;0.00;0.00;;;;;;;6.14;100.00;99663.59;5114404;28;20027;-39
2023/10/26 03:30:20;;;;;;;0.00;0.00;;;;;;;6.13;100.00;99655.75;5114965;28;20122;-38
2023/10/26 03:32:45;;;;;;;0.00;0.00;;;;;;;6.14;100.00;99660.09;5114482;28;20051;-38
2023/10/26 03:35:10;;;;;;;0.00;0.00;;;;;;;6.14;100.00;99662.78;5106783;28;20024;-37
2023/10/26 03:37:36;;;;;;;0.00;0.00;;;;;;;6.15;100.00;99654.56;5114331;28;20062;-38
2023/10/26 03:40:03;;;;;;;0.00;0.00;;;;;;;6.17;100.00;99657.06;5120173;27;20034;-37
2023/10/26 03:42:28;;;;;;;0.00;0.00;;;;;;;6.15;100.00;99659.91;5117188;28;20066;-38
2023/10/26 03:44:54;;;;;;;0.00;0.00;;;;;;;6.18;100.00;99658.72;5118511;28;20020;-37
2023/10/26 03:47:19;;;;;;;0.00;0.00;;;;;;;6.23;100.00;99660.84;5112064;28;20134;-39
2023/10/26 03:49:45;;;;;;;0.00;0.00;;;;;;;6.23;100.00;99655.50;5104419;28;20110;-37
2023/10/26 03:52:11;;;;;;;0.00;0.00;;;;;;;6.24;100.00;99663.34;5114593;28;20102;-38
2023/10/26 03:54:37;;;;;;;0.00;0.00;;;;;;;6.29;100.00;99649.41;5112121;28;20419;-39
2023/10/26 03:57:03;;;;;;;0.00;0.00;;;;;;;6.37;100.00;99647.50;5106246;28;20028;-39
2023/10/26 03:59:28;;;;;;;0.00;0.00;;;;;;;6.33;100.00;99648.88;5112713;28;20392;-39
2023/10/26 04:01:54;;;;;;;0.00;0.00;;;;;;;6.36;100.00;99645.00;5097693;28;20585;-38
2023/10/26 04:04:19;;;;;;;0.00;0.00;;;;;;;6.45;100.00;99633.22;5092904;28;20115;-38
2023/10/26 04:06:45;;;;;;;0.00;0.00;;;;;;;6.50;100.00;99635.31;5108225;28;20119;-38
2023/10/26 04:09:10;;;;;;;0.65;0.45;;;;;;;6.46;100.00;99621.50;5112406;28;20027;-39
2023/10/26 04:11:36;;;;;;;0.43;0.43;;;;;;;6.45;100.00;99621.69;5112118;28;20128;-39
2023/10/26 04:14:01;;;;;;;0.00;0.00;;;;;;;6.42;100.00;99627.41;5111172;28;20110;-39
2023/10/26 04:16:26;;;;;;;0.10;0.10;;;;;;;6.38;100.00;99624.28;5111252;28;20365;-39
2023/10/26 04:18:52;;;;;;;0.00;0.00;;;;;;;6.36;100.00;99624.44;5112033;28;20050;-38
2023/10/26 04:21:17;;;;;;;0.00;0.00;;;;;;;6.35;100.00;99628.16;5113300;28;20030;-39
2023/10/26 04:23:42;;;;;;;0.10;0.00;;;;;;;6.34;100.00;99625.63;5107445;28;20034;-38
2023/10/26 04:26:09;;;;;;;0.10;0.10;;;;;;;6.32;100.00;99617.81;5113815;28;20081;-38
2023/10/26 04:28:35;;;;;;;0.10;0.10;;;;;;;6.30;100.00;99619.84;5112048;28;20030;-39
2023/10/26 04:31:01;;;;;;;0.10;0.10;;;;;;;6.29;100.00;99615.53;5107853;28;20035;-39
2023/10/26 04:33:26;;;;;;;0.15;0.15;;;;;;;6.30;100.00;99619.03;5111482;28;20043;-38
2023/10/26 04:35:51;;;;;;;0.10;0.10;;;;;;;6.26;100.00;99621.22;5105670;28;20024;-37
2023/10/26 04:38:17;;;;;;;0.00;0.00;;;;;;;6.25;100.00;99616.91;5092277;28;20020;-39
2023/10/26 04:40:43;;;;;;;0.00;0.00;;;;;;;6.26;100.00;99620.38;5099209;28;20433;-40
2023/10/26 04:43:09;;;;;;;0.03;0.03;;;;;;;6.33;100.00;99622.16;5119659;28;20027;-37
2023/10/26 04:45:35;;;;;;;0.00;0.00;;;;;;;6.30;100.00;99619.84;5116556;28;20024;-39
2023/10/26 04:48:03;;;;;;;0.00;0.00;;;;;;;6.32;100.00;99619.69;5118035;28;20019;-38
2023/10/26 04:50:30;;;;;;;0.00;0.00;;;;;;;6.32;100.00;99625.84;5128589;28;20441;-38
2023/10/26 04:52:55;;;;;;;0.22;0.20;;;;;;;6.34;100.00;99631.00;5110397;28;20031;-37
2023/10/26 04:55:20;;;;;;;0.10;0.10;;;;;;;6.33;100.00;99622.16;5107087;28;20027;-37
2023/10/26 04:57:46;;;;;;;0.40;0.40;;;;;;;6.33;100.00;99616.81;5113862;28;20034;-39
2023/10/26 05:00:12;;;;;;;0.03;0.03;;;;;;;6.33;100.00;99618.66;5113140;28;20088;-38
2023/10/26 05:02:38;;;;;;;0.50;0.50;;;;;;;6.34;100.00;99621.13;5101106;28;20057;-39
2023/10/26 05:05:04;;;;;;;0.00;0.00;;;;;;;6.36;100.00;99627.13;5072874;28;20104;-39
2023/10/26 05:07:30;;;;;;;0.52;0.40;;;;;;;6.34;100.00;99629.13;5065089;28;20032;-38
2023/10/26 05:09:59;;;;;;;0.40;0.40;;;;;;;6.31;100.00;99626.84;5068288;28;20075;-38
2023/10/26 05:12:24;;;;;;;0.63;0.63;;;;;;;6.30;100.00;99633.22;5074107;28;20032;-38
2023/10/26 05:14:49;;;;;;;0.40;0.40;;;;;;;6.28;100.00;99643.25;5074559;28;20021;-39
2023/10/26 05:17:15;;;;;;;0.55;0.45;;;;;;;6.31;100.00;99637.53;5074962;28;20033;-37
2023/10/26 05:19:40;;;;;;;0.90;0.60;;;;;;;6.34;100.00;99633.66;5074834;28;20021;-38
2023/10/26 05:22:05;;;;;;;0.00;0.00;;;;;;;6.37;100.00;99636.81;5073344;28;20378;-38
2023/10/26 05:24:31;;;;;;;0.00;0.00;;;;;;;6.41;100.00;99631.09;5074521;28;20543;-37
2023/10/26 05:26:56;;;;;;;1.40;0.90;;;;;;;6.42;100.00;99624.72;5074999;28;20032;-38
2023/10/26 05:29:22;;;;;;;0.25;0.22;;;;;;;6.40;100.00;99618.72;5074944;28;20383;-37
2023/10/26 05:31:47;;;;;;;0.85;0.60;;;;;;;6.34;100.00;99617.63;5074261;28;20406;-39
2023/10/26 05:34:12;;;;;;;0.45;0.45;;;;;;;6.39;100.00;99625.91;5073265;28;20064;-38
2023/10/26 05:36:38;;;;;;;0.28;0.10;;;;;;;6.45;100.00;99617.19;5074570;28;20462;-37
2023/10/26 05:39:03;;;;;;;0.00;0.00;;;;;;;6.51;100.00;99615.59;5074704;28;20029;-38
2023/10/26 05:41:29;;;;;;;0.10;0.00;;;;;;;6.53;100.00;99608.22;5072949;28;20025;-37
2023/10/26 05:43:54;;;;;;;0.00;0.00;;;;;;;6.50;100.00;99609.44;5074327;28;20497;-38
2023/10/26 05:46:20;;;;;;;0.30;0.30;;;;;;;6.48;100.00;99597.28;5074662;28;20031;-39
2023/10/26 05:48:45;;;;;;;0.00;0.00;;;;;;;6.53;100.00;99597.50;5073490;28;20024;-38
2023/10/26 05:51:10;;;;;;;0.08;0.08;;;;;;;6.52;100.00;99603.88;5074276;28;20036;-39
2023/10/26 05:53:36;;;;;;;0.08;0.08;;;;;;;6.52;100.00;99601.22;5074222;28;20536;-38
2023/10/26 05:56:03;;;;;;;0.10;0.10;;;;;;;6.46;100.00;99597.44;5074814;28;20024;-38
2023/10/26 05:58:29;;;;;;;0.13;0.10;;;;;;;6.46;100.00;99600.13;5073806;28;20028;-37
2023/10/26 06:00:54;;;;;;;0.93;0.70;;;;;;;6.43;100.00;99597.81;5073832;28;20381;-37
2023/10/26 06:03:19;;;;;;;0.20;0.20;;;;;;;6.41;100.00;99593.69;5098408;28;20524;-38
2023/10/26 06:05:47;;;;;;;0.40;0.40;;;;;;;6.43;100.00;99591.66;5111890;27;20465;-38
2023/10/26 06:08:12;;;;;;;0.03;0.03;;;;;;;6.50;100.00;99587.19;5116785;27;20046;-36
2023/10/26 06:10:38;;;;;;;0.00;0.00;;;;;;;6.53;100.00;99581.47;5118396;27;20114;-38
2023/10/26 06:13:04;;;;;;;0.32;0.28;;;;;;;6.50;100.00;99572.03;5114664;28;20034;-37
2023/10/26 06:15:29;;;;;;;0.25;0.20;;;;;;;6.59;100.00;99578.09;5113470;28;20039;-37
2023/10/26 06:17:55;;;;;;;0.00;0.00;;;;;;;6.60;100.00;99590.41;5080096;28;20035;-40
2023/10/26 06:20:22;;;;;;;0.30;0.30;;;;;;;6.61;100.00;99589.41;5099329;28;20109;-38
2023/10/26 06:22:47;;;;;;;0.00;0.00;;;;;;;6.66;100.00;99589.69;5109864;27;20076;-39
2023/10/26 06:25:12;;;;;;;0.08;0.08;;;;;;;6.74;100.00;99586.91;5111245;27;20031;-38
2023/10/26 06:27:38;;;;;;;0.00;0.00;;;;;;;6.85;100.00;99585.59;5105707;28;20107;-38
2023/10/26 06:30:03;;;;;;;0.70;0.70;;;;;;;6.79;100.00;99584.50;5100379;27;20039;-38
2023/10/26 06:32:29;;;;;;;0.00;0.00;;;;;;;6.84;100.00;99594.59;5109339;27;20108;-37
2023/10/26 06:34:55;;;;;;;0.20;0.20;;;;;;;6.89;100.00;99599.41;5107579;28;20034;-39
2023/10/26 06:37:20;;;;;;;1.30;0.85;;;;;;;6.87;100.00;99598.75;5109620;28;20027;-37
2023/10/26 06:39:46;;;;;;;1.42;1.17;;;;;;;6.90;100.00;99609.06;5108724;28;20049;-38
2023/10/26 06:42:12;;;;;;;0.30;0.30;;;;;;;6.94;100.00;99603.16;5112843;27;20398;-40
2023/10/26 06:44:39;;;;;;;0.28;0.28;;;;;;;6.99;100.00;99603.44;5113941;28;20072;-39
2023/10/26 06:47:04;;;;;;;1.00;0.90;;;;;;;6.92;100.00;99596.34;5114494;27;20036;-39
2023/10/26 06:49:29;;;;;;;1.45;0.85;;;;;;;6.89;100.00;99602.91;5110271;28;20463;-38
2023/10/26 06:51:55;;;;;;;0.90;0.70;;;;;;;6.92;100.00;99601.69;5108643;27;20031;-39
2023/10/26 06:54:20;;;;;;;0.22;0.22;;;;;;;6.93;100.00;99601.50;5108668;28;20024;-39
2023/10/26 06:56:45;;;;;;;0.28;0.28;;;;;;;6.96;100.00;99605.66;5108182;27;20042;-38
2023/10/26 06:59:11;;;;;;;1.80;1.35;;;;;;;6.89;100.00;99602.06;5112969;28;20040;-38
2023/10/26 07:01:38;;;;;;;1.13;0.93;;;;;;;6.90;100.00;99596.56;5115507;28;20039;-40
2023/10/26 07:04:04;;;;;;;0.52;0.35;;;;;;;7.04;100.00;99603.69;5116594;28;20519;-38
2023/10/26 07:06:30;;;;;;;0.00;0.00;;;;;;;7.07;100.00;99609.69;5117467;28;20028;-38
2023/10/26 07:08:55;;;;;;;0.00;0.00;;;;;;;7.11;100.00;99605.59;5117254;28;20034;-38
2023/10/26 07:11:20;;;;;;;0.43;0.28;;;;;;;7.23;100.00;99604.91;5115581;28;20028;-39
2023/10/26 07:13:46;;;;;;;0.10;0.00;;;;;;;7.28;100.00;99607.03;5116518;27;20031;-38
2023/10/26 07:16:11;;;;;;;0.22;0.22;;;;;;;7.36;100.00;99614.09;5113946;28;20031;-37
2023/10/26 07:18:37;;;;;;;0.68;0.50;;;;;;;7.41;100.00;99603.66;5108588;27;20128;-39
2023/10/26 07:21:07;;;;;;;0.50;0.45;;;;;;;7.36;100.00;99611.41;5109100;28;20066;-39
2023/10/26 07:23:33;;;;;;;0.32;0.13;;;;;;;7.50;100.00;99613.19;5106654;27;20118;-38
2023/10/26 07:25:58;;;;;;;0.00;0.00;;;;;;;7.54;100.00;99614.47;5109473;28;20110;-38
2023/10/26 07:28:24;;;;;;;0.80;0.80;;;;;;;7.50;100.00;99613.19;5111515;27;20064;-38
2023/10/26 07:30:50;;;;;;;0.00;0.00;;;;;;;7.60;100.00;99610.19;5109650;28;20103;-38
2023/10/26 07:33:18;;;;;;;0.10;0.10;;;;;;;7.70;100.00;99618.72;5111838;27;20045;-39
2023/10/26 07:35:50;;;;;;;0.57;0.57;;;;;;;7.74;100.00;99611.13;5107229;28;20024;-40
2023/10/26 07:38:15;;;;;;;0.10;0.10;;;;;;;7.70;100.00;99614.19;5107067;28;20038;-38
2023/10/26 07:40:56;;;;;;;0.47;0.47;;;;;;;7.84;100.00;99616.97;5114379;27;20249;-39
2023/10/26 07:43:22;;;;;;;0.05;0.03;;;;;;;7.87;100.00;99611.22;5109737;27;20023;-38
2023/10/26 07:45:48;;;;;;;0.35;0.35;;;;;;;7.89;100.00;99612.69;5109541;28;20474;-39
2023/10/26 07:48:15;;;;;;;0.20;0.20;;;;;;;8.01;100.00;99623.72;5109765;28;20051;-38
2023/10/26 07:50:40;;;;;;;0.10;0.10;;;;;;;8.13;100.00;99622.13;5110238;28;20080;-37
2023/10/26 07:53:06;;;;;;;0.10;0.10;;;;;;;8.13;100.00;99615.94;5112468;28;20674;-39
2023/10/26 07:55:32;;;;;;;0.30;0.30;;;;;;;8.20;100.00;99607.97;5116563;28;20035;-39
2023/10/26 07:57:57;;;;;;;0.40;0.40;;;;;;;8.24;100.00;99606.53;5111566;27;20107;-39
2023/10/26 08:00:23;;;;;;;0.00;0.00;;;;;;;8.24;100.00;99606.53;5110153;28;20032;-37
2023/10/26 08:02:48;;;;;;;0.00;0.00;;;;;;;8.30;100.00;99611.13;5109302;28;20401;-37
2023/10/26 08:05:15;;;;;;;0.03;0.03;;;;;;;8.45;100.00;99603.81;5109876;28;20471;-39
2023/10/26 08:07:41;;;;;;;0.00;0.00;;;;;;;8.45;100.00;99609.19;5106380;27;20058;-38
2023/10/26 08:10:09;;;;;;;0.10;0.10;;;;;;;8.48;100.00;99603.41;5091309;28;20400;-38
2023/10/26 08:12:34;;;;;;;0.30;0.30;;;;;;;8.50;100.00;99609.38;5109241;28;20371;-37
2023/10/26 08:15:01;;;;;;;0.20;0.20;;;;;;;8.56;100.00;99610.47;5109038;28;20027;-39
2023/10/26 08:17:26;;;;;;;0.30;0.30;;;;;;;8.57;100.00;99606.75;5108447;28;20028;-39
2023/10/26 08:19:53;;;;;;;0.08;0.08;;;;;;;8.47;100.00;99607.09;5110492;27;20024;-38
2023/10/26 08:22:20;;;;;;;0.10;0.10;;;;;;;8.57;100.00;99607.56;5111067;27;20076;-38
2023/10/26 08:24:45;;;;;;;0.10;0.10;;;;;;;8.54;100.00;99607.97;5109667;28;20442;-38
2023/10/26 08:27:11;;;;;;;0.10;0.10;;;;;;;8.52;100.00;99603.84;5108424;28;20201;-38
2023/10/26 08:29:36;;;;;;;0.00;0.00;;;;;;;8.60;100.00;99611.72;5089525;28;20572;-38
2023/10/26 08:32:03;;;;;;;0.00;0.00;;;;;;;8.62;100.00;99600.78;5108024;28;20564;-37
2023/10/26 08:34:29;;;;;;;0.00;0.00;;;;;;;8.90;100.00;99601.53;5108925;28;20035;-38
2023/10/26 08:36:54;;;;;;;0.00;0.00;;;;;;;8.95;100.00;99604.44;5111648;28;20023;-38
2023/10/26 08:39:19;;;;;;;0.08;0.00;;;;;;;9.11;100.00;99616.66;5108604;27;20080;-38
2023/10/26 08:41:50;;;;;;;0.00;0.00;;;;;;;9.15;100.00;99622.44;5110821;28;20130;-38
2023/10/26 08:44:17;;;;;;;0.00;0.00;;;;;;;9.19;100.00;99621.84;5119627;27;20031;-38
2023/10/26 08:46:44;;;;;;;0.00;0.00;;;;;;;9.02;100.00;99624.06;5116503;28;20076;-39
2023/10/26 08:49:09;;;;;;;0.00;0.00;;;;;;;8.83;100.00;99622.13;5118439;28;20030;-40
2023/10/26 08:51:35;;;;;;;0.00;0.00;;;;;;;8.91;100.00;99624.63;5086760;28;20100;-37
2023/10/26 08:54:00;;;;;;;0.00;0.00;;;;;;;8.96;100.00;99613.31;5117372;27;20406;-39
2023/10/26 08:56:26;;;;;;;0.00;0.00;;;;;;;9.00;100.00;99611.84;5111365;28;20040;-39
2023/10/26 08:58:59;;;;;;;0.00;0.00;;;;;;;9.05;100.00;99622.81;5111364;28;20027;-38
2023/10/26 09:01:25;;;;;;;0.00;0.00;;;;;;;9.07;100.00;99622.63;5111353;28;20039;-40
2023/10/26 09:03:51;;;;;;;0.00;0.00;;;;;;;9.28;100.00;99613.59;5111259;28;20051;-40
2023/10/26 09:06:16;;;;;;;0.00;0.00;;;;;;;9.63;100.00;99608.88;5111016;28;20028;-39
2023/10/26 09:08:42;;;;;;;0.00;0.00;;;;;;;9.74;100.00;99608.28;5110969;28;20046;-40
2023/10/26 09:11:24;;;;;;;0.00;0.00;;;;;;;9.69;100.00;99600.00;5111064;28;20023;-38
2023/10/26 09:13:50;;;;;;;0.00;0.00;;;;;;;9.85;100.00;99610.34;5107688;28;20023;-38
2023/10/26 09:16:15;;;;;;;0.00;0.00;;;;;;;10.02;100.00;99597.28;5110049;28;20157;-40
2023/10/26 09:18:49;;;;;;;0.00;0.00;;;;;;;10.14;100.00;99607.41;5111223;28;20063;-38
2023/10/26 09:21:16;;;;;;;0.00;0.00;;;;;;;10.23;100.00;99595.41;5113524;28;20080;-39
2023/10/26 09:23:42;;;;;;;0.00;0.00;;;;;;;10.51;100.00;99597.84;5114945;28;20024;-39
2023/10/26 09:26:08;;;;;;;0.00;0.00;;;;;;;10.91;100.00;99595.81;5113759;28;20061;-39
2023/10/26 09:28:51;;;;;;;0.00;0.00;;;;;;;10.87;100.00;99591.06;5112690;28;20497;-39
2023/10/26 09:31:17;;;;;;;0.00;0.00;;;;;;;10.89;100.00;99583.59;5110134;28;20505;-39
2023/10/26 09:33:46;;;;;;;0.00;0.00;;;;;;;11.04;100.00;99575.25;5108838;28;20035;-37
2023/10/26 09:36:13;;;;;;;0.00;0.00;;;;;;;10.85;100.00;99576.97;5108650;28;20410;-39
2023/10/26 09:38:39;;;;;;;0.00;0.00;;;;;;;10.67;100.00;99569.63;5111007;28;20038;-39
2023/10/26 09:41:11;;;;;;;0.00;0.00;;;;;;;10.59;100.00;99562.63;5111655;28;20036;-40
2023/10/26 09:43:37;;;;;;;0.00;0.00;;;;;;;10.47;100.00;99550.88;5116925;28;20027;-39
2023/10/26 09:46:03;;;;;;;0.00;0.00;;;;;;;10.58;100.00;99560.97;5116628;27;20027;-38
2023/10/26 09:48:29;;;;;;;0.00;0.00;;;;;;;10.60;100.00;99550.81;5116248;28;20111;-38
2023/10/26 09:50:54;;;;;;;0.00;0.00;;;;;;;10.97;100.00;99551.03;5115214;27;20037;-39
2023/10/26 09:53:23;;;;;;;0.00;0.00;;;;;;;11.14;100.00;99557.59;5117530;28;20055;-41
2023/10/26 09:55:49;;;;;;;0.00;0.00;;;;;;;10.99;100.00;99551.66;5099589;28;20020;-39
2023/10/26 09:58:16;;;;;;;0.00;0.00;;;;;;;11.16;100.00;99547.44;5099504;28;20531;-40
2023/10/26 10:00:41;;;;;;;0.00;0.00;;;;;;;11.38;100.00;99560.53;5115925;27;20022;-41
2023/10/26 10:03:11;;;;;;;0.00;0.00;;;;;;;11.53;100.00;99547.56;5115719;28;20051;-38
2023/10/26 10:05:41;;;;;;;0.00;0.00;;;;;;;11.64;100.00;99551.41;5114946;28;20042;-39
2023/10/26 10:08:06;;;;;;;0.00;0.00;;;;;;;11.28;100.00;99544.84;5113922;28;20028;-39
2023/10/26 10:10:33;;;;;;;0.00;0.00;;;;;;;11.51;100.00;99549.66;5114953;27;20042;-39
2023/10/26 10:12:59;;;;;;;0.00;0.00;;;;;;;11.59;100.00;99545.84;5114419;28;20405;-39
2023/10/26 10:15:35;;;;;;;0.00;0.00;;;;;;;12.05;100.00;99545.44;5120322;27;20061;-40
2023/10/26 10:18:03;;;;;;;0.00;0.00;;;;;;;12.28;100.00;99533.97;5119992;27;20504;-39
2023/10/26 10:20:30;;;;;;;0.00;0.00;;;;;;;12.30;100.00;99528.38;5113855;28;20028;-41
2023/10/26 10:22:58;;;;;;;0.00;0.00;;;;;;;12.28;100.00;99527.78;5113905;28;20104;-38
2023/10/26 10:25:49;;;;;;;0.00;0.00;;;;;;;12.21;100.00;99516.22;5119670;27;20023;-39
2023/10/26 10:28:15;;;;;;;0.00;0.00;;;;;;;12.32;100.00;99522.72;5127180;27;20030;-38
2023/10/26 10:30:55;;;;;;;0.00;0.00;;;;;;;13.01;100.00;99515.19;5129711;27;20366;-39
2023/10/26 10:33:23;;;;;;;0.00;0.00;;;;;;;13.38;100.00;99499.69;5116944;28;20027;-38
2023/10/26 10:35:57;;;;;;;0.00;0.00;;;;;;;13.27;100.00;99486.97;5113819;28;20099;-40
2023/10/26 10:38:24;;;;;;;0.00;0.00;;;;;;;13.34;100.00;99474.19;5106538;28;20109;-38
2023/10/26 10:40:55;;;;;;;0.00;0.00;;;;;;;13.57;100.00;99466.06;5112000;28;20123;-37
2023/10/26 10:43:33;;;;;;;0.00;0.00;;;;;;;13.57;100.00;99454.44;5114697;28;20034;-38
2023/10/26 10:46:18;;;;;;;0.00;0.00;;;;;;;13.53;100.00;99453.25;5116676;28;20110;-40
2023/10/26 10:49:14;;;;;;;0.00;0.00;;;;;;;13.73;100.00;99452.91;5106337;28;20042;-39
2023/10/26 10:51:42;;;;;;;0.00;0.00;;;;;;;13.58;100.00;99450.69;5099470;28;20374;-39
2023/10/26 10:54:09;;;;;;;;;;;;;;;13.55;100.00;99451.16;5113408;28;20119;-38
2023/10/26 10:56:39;;;;;;;0.00;0.00;;;;;;;13.15;100.00;99444.53;5129128;27;19907;-39
2023/10/26 10:59:19;;;;;;;0.00;0.00;;;;;;;12.92;100.00;99456.09;5103455;28;20081;-40
2023/10/26 11:01:45;;;;;;;0.00;0.00;;;;;;;12.55;100.00;99449.19;5092912;28;20481;-40
2023/10/26 11:04:13;;;;;;;0.00;0.00;;;;;;;12.25;100.00;99453.50;5092260;28;20491;-40
2023/10/26 11:06:46;;;;;;;0.00;0.00;;;;;;;12.04;100.00;99457.50;5093363;28;20012;-39
2023/10/26 11:09:21;;;;;;;0.00;0.00;;;;;;;12.35;100.00;99457.53;5092862;28;20025;-39
2023/10/26 11:11:47;;;;;;;0.00;0.00;;;;;;;12.32;100.00;99461.50;5075050;28;20088;-39
2023/10/26 11:14:12;;;;;;;0.00;0.00;;;;;;;12.49;100.00;99459.84;5112684;28;20118;-40
2023/10/26 11:16:38;;;;;;;0.00;0.00;;;;;;;12.43;100.00;99459.94;5113692;28;20476;-38
2023/10/26 11:19:04;;;;;;;0.00;0.00;;;;;;;12.39;100.00;99458.75;5095533;28;20032;-39
2023/10/26 11:21:29;;;;;;;0.00;0.00;;;;;;;12.23;100.00;99461.00;5113479;28;20039;-39
2023/10/26 11:23:54;;;;;;;0.00;0.00;;;;;;;12.14;100.00;99466.91;5094099;28;20023;-38
2023/10/26 11:26:20;;;;;;;0.00;0.00;;;;;;;12.13;100.00;99454.50;5112968;28;20048;-38
2023/10/26 11:28:45;;;;;;;0.00;0.00;;;;;;;12.10;100.00;99450.38;5113166;28;20112;-39